sensor_id;sensor_type;location;lat;lon;timestamp;P1;durP1;ratioP1;P2;durP2;ratioP2
6821;SDS011;3449;48.728;8.968;2023-03-30T00:00:13;9.43;;;1.90;;
6821;SDS011;3449;48.728;8.968;2023-03-30T00:02:44;4.90;;;1.50;;
6821;SDS011;3449;48.728;8.968;2023-03-30T00:05:13;12.93;;;1.40;;
6821;SDS011;3449;48.728;8.968;2023-03-30T00:07:43;4.30;;;1.73;;
6821;SDS011;3449;48.728;8.968;2023-03-30T00:10:10;6.13;;;2.03;;
6821;SDS011;3449;48.728;8.968;2023-03-30T00:12:38;5.80;;;1.70;;
6821;SDS011;3449;48.728;8.968;2023-03-30T00:15:08;11.87;;;1.80;;
6821;SDS011;3449;48.728;8.968;2023-03-30T00:17:36;4.33;;;1.83;;
6821;SDS011;3449;48.728;8.968;2023-03-30T00:20:03;8.57;;;2.07;;
6821;SDS011;3449;48.728;8.968;2023-03-30T00:22:35;6.73;;;1.50;;
6821;SDS011;3449;48.728;8.968;2023-03-30T00:25:04;9.63;;;1.73;;
6821;SDS011;3449;48.728;8.968;2023-03-30T00:27:33;4.20;;;1.70;;
6821;SDS011;3449;48.728;8.968;2023-03-30T00:30:00;4.30;;;1.50;;
6821;SDS011;3449;48.728;8.968;2023-03-30T00:32:27;5.80;;;1.70;;
6821;SDS011;3449;48.728;8.968;2023-03-30T00:34:55;11.90;;;2.10;;
6821;SDS011;3449;48.728;8.968;2023-03-30T00:37:22;7.00;;;1.50;;
6821;SDS011;3449;48.728;8.968;2023-03-30T00:39:49;6.60;;;1.60;;
6821;SDS011;3449;48.728;8.968;2023-03-30T00:42:19;11.20;;;2.00;;
6821;SDS011;3449;48.728;8.968;2023-03-30T00:47:42;8.43;;;2.27;;
6821;SDS011;3449;48.728;8.968;2023-03-30T00:50:13;7.20;;;2.27;;
6821;SDS011;3449;48.728;8.968;2023-03-30T00:52:42;15.00;;;2.67;;
6821;SDS011;3449;48.728;8.968;2023-03-30T00:55:10;6.73;;;1.70;;
6821;SDS011;3449;48.728;8.968;2023-03-30T00:57:39;11.17;;;1.70;;
6821;SDS011;3449;48.728;8.968;2023-03-30T01:00:09;10.80;;;1.77;;
6821;SDS011;3449;48.728;8.968;2023-03-30T01:02:40;12.30;;;2.10;;
6821;SDS011;3449;48.728;8.968;2023-03-30T01:05:10;10.60;;;2.60;;
6821;SDS011;3449;48.728;8.968;2023-03-30T01:07:37;8.63;;;1.40;;
6821;SDS011;3449;48.728;8.968;2023-03-30T01:10:06;5.27;;;1.97;;
6821;SDS011;3449;48.728;8.968;2023-03-30T01:12:35;5.80;;;2.13;;
6821;SDS011;3449;48.728;8.968;2023-03-30T01:15:05;6.00;;;1.77;;
6821;SDS011;3449;48.728;8.968;2023-03-30T01:17:34;9.27;;;2.63;;
6821;SDS011;3449;48.728;8.968;2023-03-30T01:23:09;4.47;;;2.20;;
6821;SDS011;3449;48.728;8.968;2023-03-30T01:28:51;13.00;;;2.30;;
6821;SDS011;3449;48.728;8.968;2023-03-30T01:31:30;10.90;;;2.13;;
6821;SDS011;3449;48.728;8.968;2023-03-30T01:34:10;9.07;;;1.47;;
6821;SDS011;3449;48.728;8.968;2023-03-30T01:39:45;10.40;;;2.07;;
6821;SDS011;3449;48.728;8.968;2023-03-30T01:42:20;13.43;;;2.70;;
6821;SDS011;3449;48.728;8.968;2023-03-30T01:44:54;12.27;;;1.67;;
6821;SDS011;3449;48.728;8.968;2023-03-30T01:47:32;16.20;;;2.50;;
6821;SDS011;3449;48.728;8.968;2023-03-30T01:50:04;7.20;;;2.00;;
6821;SDS011;3449;48.728;8.968;2023-03-30T01:52:35;6.53;;;2.10;;
6821;SDS011;3449;48.728;8.968;2023-03-30T01:55:09;4.07;;;1.73;;
6821;SDS011;3449;48.728;8.968;2023-03-30T01:57:40;3.97;;;1.93;;
6821;SDS011;3449;48.728;8.968;2023-03-30T02:00:12;19.50;;;2.93;;
6821;SDS011;3449;48.728;8.968;2023-03-30T02:02:44;6.60;;;2.73;;
6821;SDS011;3449;48.728;8.968;2023-03-30T02:05:14;9.00;;;2.30;;
6821;SDS011;3449;48.728;8.968;2023-03-30T02:07:43;17.00;;;3.10;;
6821;SDS011;3449;48.728;8.968;2023-03-30T02:10:14;7.50;;;2.37;;
6821;SDS011;3449;48.728;8.968;2023-03-30T02:12:44;7.90;;;2.57;;
6821;SDS011;3449;48.728;8.968;2023-03-30T02:15:12;13.57;;;2.10;;
6821;SDS011;3449;48.728;8.968;2023-03-30T02:17:41;7.37;;;2.10;;
6821;SDS011;3449;48.728;8.968;2023-03-30T02:20:11;5.97;;;2.03;;
6821;SDS011;3449;48.728;8.968;2023-03-30T02:22:40;3.17;;;1.83;;
6821;SDS011;3449;48.728;8.968;2023-03-30T02:25:08;5.53;;;1.87;;
6821;SDS011;3449;48.728;8.968;2023-03-30T02:27:37;5.07;;;2.10;;
6821;SDS011;3449;48.728;8.968;2023-03-30T02:30:06;4.77;;;2.20;;
6821;SDS011;3449;48.728;8.968;2023-03-30T02:32:35;6.40;;;2.50;;
6821;SDS011;3449;48.728;8.968;2023-03-30T02:35:13;5.93;;;2.57;;
6821;SDS011;3449;48.728;8.968;2023-03-30T02:37:59;13.60;;;4.70;;
6821;SDS011;3449;48.728;8.968;2023-03-30T02:40:39;17.67;;;4.50;;
6821;SDS011;3449;48.728;8.968;2023-03-30T02:43:29;10.30;;;4.80;;
6821;SDS011;3449;48.728;8.968;2023-03-30T02:46:08;7.77;;;2.20;;
6821;SDS011;3449;48.728;8.968;2023-03-30T02:48:45;6.83;;;3.80;;
6821;SDS011;3449;48.728;8.968;2023-03-30T02:51:24;11.13;;;2.13;;
6821;SDS011;3449;48.728;8.968;2023-03-30T02:54:02;8.10;;;2.27;;
6821;SDS011;3449;48.728;8.968;2023-03-30T02:56:39;10.13;;;2.77;;
6821;SDS011;3449;48.728;8.968;2023-03-30T02:59:12;7.80;;;2.40;;
6821;SDS011;3449;48.728;8.968;2023-03-30T03:01:44;7.13;;;2.10;;
6821;SDS011;3449;48.728;8.968;2023-03-30T03:04:14;14.90;;;2.10;;
6821;SDS011;3449;48.728;8.968;2023-03-30T03:06:42;7.10;;;2.27;;
6821;SDS011;3449;48.728;8.968;2023-03-30T03:09:09;5.13;;;1.80;;
6821;SDS011;3449;48.728;8.968;2023-03-30T03:11:36;8.13;;;2.40;;
6821;SDS011;3449;48.728;8.968;2023-03-30T03:14:03;9.43;;;2.70;;
6821;SDS011;3449;48.728;8.968;2023-03-30T03:16:33;11.27;;;2.50;;
6821;SDS011;3449;48.728;8.968;2023-03-30T03:19:00;9.67;;;2.90;;
6821;SDS011;3449;48.728;8.968;2023-03-30T03:21:27;7.73;;;1.90;;
6821;SDS011;3449;48.728;8.968;2023-03-30T03:23:54;6.80;;;2.60;;
6821;SDS011;3449;48.728;8.968;2023-03-30T03:26:21;10.27;;;2.83;;
6821;SDS011;3449;48.728;8.968;2023-03-30T03:28:48;12.60;;;2.27;;
6821;SDS011;3449;48.728;8.968;2023-03-30T03:31:14;9.00;;;1.87;;
6821;SDS011;3449;48.728;8.968;2023-03-30T03:33:43;16.67;;;3.20;;
6821;SDS011;3449;48.728;8.968;2023-03-30T03:36:10;12.20;;;3.40;;
6821;SDS011;3449;48.728;8.968;2023-03-30T03:38:37;13.53;;;2.73;;
6821;SDS011;3449;48.728;8.968;2023-03-30T03:41:04;10.30;;;2.27;;
6821;SDS011;3449;48.728;8.968;2023-03-30T03:43:31;8.77;;;2.93;;
6821;SDS011;3449;48.728;8.968;2023-03-30T03:45:58;7.80;;;3.13;;
6821;SDS011;3449;48.728;8.968;2023-03-30T03:48:25;10.97;;;3.13;;
6821;SDS011;3449;48.728;8.968;2023-03-30T03:50:54;18.20;;;3.03;;
6821;SDS011;3449;48.728;8.968;2023-03-30T03:53:23;7.90;;;2.60;;
6821;SDS011;3449;48.728;8.968;2023-03-30T03:55:51;21.70;;;2.80;;
6821;SDS011;3449;48.728;8.968;2023-03-30T03:58:18;9.43;;;2.23;;
6821;SDS011;3449;48.728;8.968;2023-03-30T04:00:46;14.20;;;2.50;;
6821;SDS011;3449;48.728;8.968;2023-03-30T04:03:13;7.43;;;2.20;;
6821;SDS011;3449;48.728;8.968;2023-03-30T04:05:39;11.07;;;3.27;;
6821;SDS011;3449;48.728;8.968;2023-03-30T04:08:08;8.00;;;2.87;;
6821;SDS011;3449;48.728;8.968;2023-03-30T04:10:36;13.17;;;2.47;;
6821;SDS011;3449;48.728;8.968;2023-03-30T04:13:03;16.50;;;3.30;;
6821;SDS011;3449;48.728;8.968;2023-03-30T04:15:30;12.93;;;2.10;;
6821;SDS011;3449;48.728;8.968;2023-03-30T04:17:57;8.17;;;2.20;;
6821;SDS011;3449;48.728;8.968;2023-03-30T04:20:24;10.10;;;2.37;;
6821;SDS011;3449;48.728;8.968;2023-03-30T04:22:52;8.00;;;2.60;;
6821;SDS011;3449;48.728;8.968;2023-03-30T04:25:21;11.33;;;2.27;;
6821;SDS011;3449;48.728;8.968;2023-03-30T04:27:50;4.67;;;2.40;;
6821;SDS011;3449;48.728;8.968;2023-03-30T04:30:17;7.00;;;2.27;;
6821;SDS011;3449;48.728;8.968;2023-03-30T04:32:46;11.10;;;3.03;;
6821;SDS011;3449;48.728;8.968;2023-03-30T04:35:26;11.20;;;3.00;;
6821;SDS011;3449;48.728;8.968;2023-03-30T04:37:54;4.50;;;2.27;;
6821;SDS011;3449;48.728;8.968;2023-03-30T04:40:23;7.67;;;2.40;;
6821;SDS011;3449;48.728;8.968;2023-03-30T04:42:50;6.90;;;2.63;;
6821;SDS011;3449;48.728;8.968;2023-03-30T04:45:17;11.23;;;3.10;;
6821;SDS011;3449;48.728;8.968;2023-03-30T04:47:44;13.53;;;3.30;;
6821;SDS011;3449;48.728;8.968;2023-03-30T04:50:11;8.87;;;2.53;;
6821;SDS011;3449;48.728;8.968;2023-03-30T04:52:39;7.43;;;2.50;;
6821;SDS011;3449;48.728;8.968;2023-03-30T04:55:06;7.20;;;2.60;;
6821;SDS011;3449;48.728;8.968;2023-03-30T04:57:35;12.83;;;2.20;;
6821;SDS011;3449;48.728;8.968;2023-03-30T05:00:02;15.63;;;2.73;;
6821;SDS011;3449;48.728;8.968;2023-03-30T05:02:32;6.67;;;2.57;;
6821;SDS011;3449;48.728;8.968;2023-03-30T05:04:59;10.70;;;2.80;;
6821;SDS011;3449;48.728;8.968;2023-03-30T05:07:26;11.93;;;2.60;;
6821;SDS011;3449;48.728;8.968;2023-03-30T05:09:53;9.13;;;2.20;;
6821;SDS011;3449;48.728;8.968;2023-03-30T05:12:20;6.23;;;2.27;;
6821;SDS011;3449;48.728;8.968;2023-03-30T05:14:48;18.67;;;2.87;;
6821;SDS011;3449;48.728;8.968;2023-03-30T05:17:15;13.00;;;3.23;;
6821;SDS011;3449;48.728;8.968;2023-03-30T05:19:41;12.93;;;3.43;;
6821;SDS011;3449;48.728;8.968;2023-03-30T05:22:08;13.87;;;3.03;;
6821;SDS011;3449;48.728;8.968;2023-03-30T05:24:35;15.53;;;2.70;;
6821;SDS011;3449;48.728;8.968;2023-03-30T05:27:02;15.93;;;2.70;;
6821;SDS011;3449;48.728;8.968;2023-03-30T05:29:30;12.30;;;2.70;;
6821;SDS011;3449;48.728;8.968;2023-03-30T05:31:59;21.70;;;3.20;;
6821;SDS011;3449;48.728;8.968;2023-03-30T05:34:26;10.43;;;3.27;;
6821;SDS011;3449;48.728;8.968;2023-03-30T05:36:53;13.53;;;3.30;;
6821;SDS011;3449;48.728;8.968;2023-03-30T05:39:20;11.00;;;3.57;;
6821;SDS011;3449;48.728;8.968;2023-03-30T05:41:47;16.00;;;4.50;;
6821;SDS011;3449;48.728;8.968;2023-03-30T05:44:14;12.47;;;3.30;;
6821;SDS011;3449;48.728;8.968;2023-03-30T05:46:42;9.13;;;3.70;;
6821;SDS011;3449;48.728;8.968;2023-03-30T05:49:10;6.07;;;2.37;;
6821;SDS011;3449;48.728;8.968;2023-03-30T05:51:37;12.17;;;3.27;;
6821;SDS011;3449;48.728;8.968;2023-03-30T05:54:04;8.23;;;2.90;;
6821;SDS011;3449;48.728;8.968;2023-03-30T05:56:31;11.00;;;2.70;;
6821;SDS011;3449;48.728;8.968;2023-03-30T05:58:58;6.23;;;2.57;;
6821;SDS011;3449;48.728;8.968;2023-03-30T06:01:25;14.23;;;3.43;;
6821;SDS011;3449;48.728;8.968;2023-03-30T06:03:52;12.07;;;3.63;;
6821;SDS011;3449;48.728;8.968;2023-03-30T06:06:20;14.83;;;4.00;;
6821;SDS011;3449;48.728;8.968;2023-03-30T06:08:47;19.03;;;3.50;;
6821;SDS011;3449;48.728;8.968;2023-03-30T06:11:15;14.23;;;2.70;;
6821;SDS011;3449;48.728;8.968;2023-03-30T06:13:42;11.40;;;2.33;;
6821;SDS011;3449;48.728;8.968;2023-03-30T06:16:09;10.50;;;2.80;;
6821;SDS011;3449;48.728;8.968;2023-03-30T06:18:35;14.77;;;2.53;;
6821;SDS011;3449;48.728;8.968;2023-03-30T06:21:03;10.27;;;2.97;;
6821;SDS011;3449;48.728;8.968;2023-03-30T06:23:33;12.73;;;3.63;;
6821;SDS011;3449;48.728;8.968;2023-03-30T06:26:01;15.00;;;3.23;;
6821;SDS011;3449;48.728;8.968;2023-03-30T06:28:29;18.63;;;4.03;;
6821;SDS011;3449;48.728;8.968;2023-03-30T06:30:56;19.93;;;4.00;;
6821;SDS011;3449;48.728;8.968;2023-03-30T06:33:25;8.10;;;2.30;;
6821;SDS011;3449;48.728;8.968;2023-03-30T06:35:52;14.17;;;3.30;;
6821;SDS011;3449;48.728;8.968;2023-03-30T06:38:20;14.87;;;3.63;;
6821;SDS011;3449;48.728;8.968;2023-03-30T06:40:48;14.80;;;3.30;;
6821;SDS011;3449;48.728;8.968;2023-03-30T06:43:16;11.20;;;2.73;;
6821;SDS011;3449;48.728;8.968;2023-03-30T06:45:48;12.63;;;2.70;;
6821;SDS011;3449;48.728;8.968;2023-03-30T06:48:17;6.37;;;2.50;;
6821;SDS011;3449;48.728;8.968;2023-03-30T06:50:46;3.90;;;2.53;;
6821;SDS011;3449;48.728;8.968;2023-03-30T06:53:13;8.90;;;2.80;;
6821;SDS011;3449;48.728;8.968;2023-03-30T06:55:40;9.07;;;2.07;;
6821;SDS011;3449;48.728;8.968;2023-03-30T06:58:09;12.47;;;2.40;;
6821;SDS011;3449;48.728;8.968;2023-03-30T07:00:36;9.57;;;3.00;;
6821;SDS011;3449;48.728;8.968;2023-03-30T07:03:03;15.60;;;2.80;;
6821;SDS011;3449;48.728;8.968;2023-03-30T07:05:30;13.83;;;2.93;;
6821;SDS011;3449;48.728;8.968;2023-03-30T07:07:57;7.93;;;2.73;;
6821;SDS011;3449;48.728;8.968;2023-03-30T07:10:24;14.50;;;2.57;;
6821;SDS011;3449;48.728;8.968;2023-03-30T07:12:52;12.33;;;3.17;;
6821;SDS011;3449;48.728;8.968;2023-03-30T07:15:20;15.43;;;2.20;;
6821;SDS011;3449;48.728;8.968;2023-03-30T07:17:48;9.00;;;2.73;;
6821;SDS011;3449;48.728;8.968;2023-03-30T07:20:16;8.73;;;2.50;;
6821;SDS011;3449;48.728;8.968;2023-03-30T07:22:43;11.50;;;2.90;;
6821;SDS011;3449;48.728;8.968;2023-03-30T07:25:10;8.10;;;2.93;;
6821;SDS011;3449;48.728;8.968;2023-03-30T07:27:38;10.93;;;3.23;;
6821;SDS011;3449;48.728;8.968;2023-03-30T07:30:05;7.93;;;2.60;;
6821;SDS011;3449;48.728;8.968;2023-03-30T07:32:35;8.20;;;2.53;;
6821;SDS011;3449;48.728;8.968;2023-03-30T07:35:02;7.47;;;2.43;;
6821;SDS011;3449;48.728;8.968;2023-03-30T07:37:30;13.60;;;2.90;;
6821;SDS011;3449;48.728;8.968;2023-03-30T07:39:56;20.70;;;2.63;;
6821;SDS011;3449;48.728;8.968;2023-03-30T07:42:24;4.53;;;2.30;;
6821;SDS011;3449;48.728;8.968;2023-03-30T07:44:50;4.13;;;2.10;;
6821;SDS011;3449;48.728;8.968;2023-03-30T07:47:17;8.30;;;2.80;;
6821;SDS011;3449;48.728;8.968;2023-03-30T07:49:46;7.10;;;2.77;;
6821;SDS011;3449;48.728;8.968;2023-03-30T07:52:13;10.20;;;2.83;;
6821;SDS011;3449;48.728;8.968;2023-03-30T07:54:40;8.20;;;4.40;;
6821;SDS011;3449;48.728;8.968;2023-03-30T07:57:08;23.10;;;5.27;;
6821;SDS011;3449;48.728;8.968;2023-03-30T07:59:35;27.17;;;6.90;;
6821;SDS011;3449;48.728;8.968;2023-03-30T08:02:03;11.00;;;4.67;;
6821;SDS011;3449;48.728;8.968;2023-03-30T08:04:30;4.23;;;3.00;;
6821;SDS011;3449;48.728;8.968;2023-03-30T08:06:59;3.43;;;2.00;;
6821;SDS011;3449;48.728;8.968;2023-03-30T08:09:28;7.13;;;3.10;;
6821;SDS011;3449;48.728;8.968;2023-03-30T08:11:55;6.40;;;2.60;;
6821;SDS011;3449;48.728;8.968;2023-03-30T08:14:22;13.83;;;2.87;;
6821;SDS011;3449;48.728;8.968;2023-03-30T08:16:50;4.80;;;2.40;;
6821;SDS011;3449;48.728;8.968;2023-03-30T08:19:17;4.63;;;2.33;;
6821;SDS011;3449;48.728;8.968;2023-03-30T08:21:44;10.37;;;2.63;;
6821;SDS011;3449;48.728;8.968;2023-03-30T08:24:12;8.07;;;2.33;;
6821;SDS011;3449;48.728;8.968;2023-03-30T08:26:39;3.97;;;2.17;;
6821;SDS011;3449;48.728;8.968;2023-03-30T08:29:07;7.87;;;2.23;;
6821;SDS011;3449;48.728;8.968;2023-03-30T08:31:34;8.20;;;2.30;;
6821;SDS011;3449;48.728;8.968;2023-03-30T08:34:01;2.70;;;1.80;;
6821;SDS011;3449;48.728;8.968;2023-03-30T08:36:28;3.90;;;2.10;;
6821;SDS011;3449;48.728;8.968;2023-03-30T08:38:56;6.70;;;3.30;;
6821;SDS011;3449;48.728;8.968;2023-03-30T08:41:30;4.93;;;3.30;;
6821;SDS011;3449;48.728;8.968;2023-03-30T08:44:10;9.43;;;4.03;;
6821;SDS011;3449;48.728;8.968;2023-03-30T08:46:48;15.97;;;6.47;;
6821;SDS011;3449;48.728;8.968;2023-03-30T08:49:17;6.77;;;4.00;;
6821;SDS011;3449;48.728;8.968;2023-03-30T08:51:46;9.87;;;3.00;;
6821;SDS011;3449;48.728;8.968;2023-03-30T08:54:16;5.80;;;3.40;;
6821;SDS011;3449;48.728;8.968;2023-03-30T08:56:50;9.13;;;3.30;;
6821;SDS011;3449;48.728;8.968;2023-03-30T08:59:27;6.77;;;2.20;;
6821;SDS011;3449;48.728;8.968;2023-03-30T09:02:05;6.90;;;3.60;;
6821;SDS011;3449;48.728;8.968;2023-03-30T09:04:41;13.10;;;4.77;;
6821;SDS011;3449;48.728;8.968;2023-03-30T09:07:22;10.83;;;6.07;;
6821;SDS011;3449;48.728;8.968;2023-03-30T09:09:51;5.97;;;2.60;;
6821;SDS011;3449;48.728;8.968;2023-03-30T09:12:21;1.50;;;1.40;;
6821;SDS011;3449;48.728;8.968;2023-03-30T09:14:56;2.57;;;1.77;;
6821;SDS011;3449;48.728;8.968;2023-03-30T09:17:27;4.10;;;1.90;;
6821;SDS011;3449;48.728;8.968;2023-03-30T09:19:59;6.00;;;1.47;;
6821;SDS011;3449;48.728;8.968;2023-03-30T09:22:32;3.00;;;1.37;;
6821;SDS011;3449;48.728;8.968;2023-03-30T09:25:05;5.30;;;2.00;;
6821;SDS011;3449;48.728;8.968;2023-03-30T09:27:44;6.80;;;1.40;;
6821;SDS011;3449;48.728;8.968;2023-03-30T09:30:17;4.10;;;1.70;;
6821;SDS011;3449;48.728;8.968;2023-03-30T09:32:48;3.50;;;1.70;;
6821;SDS011;3449;48.728;8.968;2023-03-30T09:35:24;3.00;;;2.13;;
6821;SDS011;3449;48.728;8.968;2023-03-30T09:37:57;3.80;;;2.47;;
6821;SDS011;3449;48.728;8.968;2023-03-30T09:40:38;1.90;;;1.80;;
6821;SDS011;3449;48.728;8.968;2023-03-30T09:43:18;1.90;;;1.53;;
6821;SDS011;3449;48.728;8.968;2023-03-30T09:45:57;1.70;;;1.60;;
6821;SDS011;3449;48.728;8.968;2023-03-30T09:48:27;5.33;;;1.97;;
6821;SDS011;3449;48.728;8.968;2023-03-30T09:51:02;4.87;;;2.00;;
6821;SDS011;3449;48.728;8.968;2023-03-30T09:53:40;2.13;;;1.40;;
6821;SDS011;3449;48.728;8.968;2023-03-30T09:56:15;3.30;;;1.60;;
6821;SDS011;3449;48.728;8.968;2023-03-30T09:58:46;3.70;;;2.17;;
6821;SDS011;3449;48.728;8.968;2023-03-30T10:01:14;3.03;;;2.00;;
6821;SDS011;3449;48.728;8.968;2023-03-30T10:03:44;3.00;;;1.90;;
6821;SDS011;3449;48.728;8.968;2023-03-30T10:06:30;6.10;;;2.23;;
6821;SDS011;3449;48.728;8.968;2023-03-30T10:09:02;2.53;;;2.33;;
6821;SDS011;3449;48.728;8.968;2023-03-30T10:11:34;4.80;;;2.97;;
6821;SDS011;3449;48.728;8.968;2023-03-30T10:14:15;3.17;;;2.20;;
6821;SDS011;3449;48.728;8.968;2023-03-30T10:16:50;4.53;;;2.17;;
6821;SDS011;3449;48.728;8.968;2023-03-30T10:19:18;3.53;;;2.97;;
6821;SDS011;3449;48.728;8.968;2023-03-30T10:21:47;3.50;;;2.67;;
6821;SDS011;3449;48.728;8.968;2023-03-30T10:24:20;4.30;;;2.40;;
6821;SDS011;3449;48.728;8.968;2023-03-30T10:26:49;6.40;;;3.10;;
6821;SDS011;3449;48.728;8.968;2023-03-30T10:29:20;2.50;;;1.97;;
6821;SDS011;3449;48.728;8.968;2023-03-30T10:31:49;6.70;;;3.13;;
6821;SDS011;3449;48.728;8.968;2023-03-30T10:34:20;8.33;;;2.23;;
6821;SDS011;3449;48.728;8.968;2023-03-30T10:36:53;5.70;;;3.23;;
6821;SDS011;3449;48.728;8.968;2023-03-30T10:39:21;3.93;;;3.00;;
6821;SDS011;3449;48.728;8.968;2023-03-30T10:41:53;4.70;;;2.17;;
6821;SDS011;3449;48.728;8.968;2023-03-30T10:44:23;1.87;;;1.67;;
6821;SDS011;3449;48.728;8.968;2023-03-30T10:46:52;2.60;;;1.83;;
6821;SDS011;3449;48.728;8.968;2023-03-30T10:49:32;3.10;;;2.00;;
6821;SDS011;3449;48.728;8.968;2023-03-30T10:52:08;3.83;;;1.70;;
6821;SDS011;3449;48.728;8.968;2023-03-30T10:54:43;1.90;;;1.80;;
6821;SDS011;3449;48.728;8.968;2023-03-30T10:57:20;3.90;;;1.57;;
6821;SDS011;3449;48.728;8.968;2023-03-30T11:00:00;2.47;;;2.00;;
6821;SDS011;3449;48.728;8.968;2023-03-30T11:02:47;3.00;;;1.90;;
6821;SDS011;3449;48.728;8.968;2023-03-30T11:05:26;3.97;;;2.27;;
6821;SDS011;3449;48.728;8.968;2023-03-30T11:07:59;3.63;;;2.03;;
6821;SDS011;3449;48.728;8.968;2023-03-30T11:10:28;5.00;;;2.37;;
6821;SDS011;3449;48.728;8.968;2023-03-30T11:12:58;2.50;;;2.13;;
6821;SDS011;3449;48.728;8.968;2023-03-30T11:15:30;5.97;;;2.80;;
6821;SDS011;3449;48.728;8.968;2023-03-30T11:18:04;6.27;;;3.37;;
6821;SDS011;3449;48.728;8.968;2023-03-30T11:20:38;10.80;;;2.90;;
6821;SDS011;3449;48.728;8.968;2023-03-30T11:23:10;7.00;;;2.83;;
6821;SDS011;3449;48.728;8.968;2023-03-30T11:25:51;5.07;;;3.03;;
6821;SDS011;3449;48.728;8.968;2023-03-30T11:28:27;5.20;;;2.60;;
6821;SDS011;3449;48.728;8.968;2023-03-30T11:31:22;4.47;;;2.77;;
6821;SDS011;3449;48.728;8.968;2023-03-30T11:33:57;3.40;;;2.50;;
6821;SDS011;3449;48.728;8.968;2023-03-30T11:36:32;8.03;;;1.63;;
6821;SDS011;3449;48.728;8.968;2023-03-30T11:39:03;4.90;;;2.37;;
6821;SDS011;3449;48.728;8.968;2023-03-30T11:41:35;3.70;;;2.00;;
6821;SDS011;3449;48.728;8.968;2023-03-30T11:44:07;8.50;;;3.50;;
6821;SDS011;3449;48.728;8.968;2023-03-30T11:46:38;6.77;;;3.40;;
6821;SDS011;3449;48.728;8.968;2023-03-30T11:49:24;2.93;;;2.23;;
6821;SDS011;3449;48.728;8.968;2023-03-30T11:52:02;4.77;;;2.07;;
6821;SDS011;3449;48.728;8.968;2023-03-30T11:54:41;4.73;;;2.47;;
6821;SDS011;3449;48.728;8.968;2023-03-30T11:57:32;3.83;;;1.80;;
6821;SDS011;3449;48.728;8.968;2023-03-30T12:00:06;3.37;;;2.30;;
6821;SDS011;3449;48.728;8.968;2023-03-30T12:02:47;4.70;;;1.70;;
6821;SDS011;3449;48.728;8.968;2023-03-30T12:05:21;2.90;;;2.37;;
6821;SDS011;3449;48.728;8.968;2023-03-30T12:07:57;5.30;;;2.40;;
6821;SDS011;3449;48.728;8.968;2023-03-30T12:10:32;8.03;;;2.60;;
6821;SDS011;3449;48.728;8.968;2023-03-30T12:13:04;5.13;;;3.03;;
6821;SDS011;3449;48.728;8.968;2023-03-30T12:15:34;5.97;;;2.20;;
6821;SDS011;3449;48.728;8.968;2023-03-30T12:18:13;4.03;;;2.20;;
6821;SDS011;3449;48.728;8.968;2023-03-30T12:20:49;7.13;;;3.80;;
6821;SDS011;3449;48.728;8.968;2023-03-30T12:23:29;7.67;;;2.77;;
6821;SDS011;3449;48.728;8.968;2023-03-30T12:26:15;5.60;;;2.53;;
6821;SDS011;3449;48.728;8.968;2023-03-30T12:28:54;5.30;;;2.67;;
6821;SDS011;3449;48.728;8.968;2023-03-30T12:31:23;6.43;;;1.90;;
6821;SDS011;3449;48.728;8.968;2023-03-30T12:34:15;2.90;;;2.07;;
6821;SDS011;3449;48.728;8.968;2023-03-30T12:36:43;3.70;;;1.97;;
6821;SDS011;3449;48.728;8.968;2023-03-30T12:39:15;7.83;;;2.60;;
6821;SDS011;3449;48.728;8.968;2023-03-30T12:41:50;10.10;;;2.40;;
6821;SDS011;3449;48.728;8.968;2023-03-30T12:50:16;3.17;;;1.77;;
6821;SDS011;3449;48.728;8.968;2023-03-30T12:52:58;2.80;;;2.17;;
6821;SDS011;3449;48.728;8.968;2023-03-30T12:55:40;5.27;;;2.27;;
6821;SDS011;3449;48.728;8.968;2023-03-30T13:01:13;3.03;;;1.50;;
6821;SDS011;3449;48.728;8.968;2023-03-30T13:04:01;8.23;;;1.87;;
6821;SDS011;3449;48.728;8.968;2023-03-30T13:06:33;5.27;;;1.30;;
6821;SDS011;3449;48.728;8.968;2023-03-30T13:09:14;2.60;;;1.50;;
6821;SDS011;3449;48.728;8.968;2023-03-30T13:12:06;6.50;;;2.40;;
6821;SDS011;3449;48.728;8.968;2023-03-30T13:14:48;4.43;;;2.07;;
6821;SDS011;3449;48.728;8.968;2023-03-30T13:17:23;4.03;;;1.70;;
6821;SDS011;3449;48.728;8.968;2023-03-30T13:22:50;4.50;;;2.13;;
6821;SDS011;3449;48.728;8.968;2023-03-30T13:25:25;2.53;;;1.90;;
6821;SDS011;3449;48.728;8.968;2023-03-30T13:28:02;7.83;;;2.20;;
6821;SDS011;3449;48.728;8.968;2023-03-30T13:31:20;3.23;;;2.30;;
6821;SDS011;3449;48.728;8.968;2023-03-30T13:34:03;2.67;;;2.43;;
6821;SDS011;3449;48.728;8.968;2023-03-30T13:36:39;9.20;;;2.50;;
6821;SDS011;3449;48.728;8.968;2023-03-30T13:39:15;4.93;;;1.97;;
6821;SDS011;3449;48.728;8.968;2023-03-30T13:41:49;4.97;;;2.63;;
6821;SDS011;3449;48.728;8.968;2023-03-30T13:44:36;10.20;;;2.00;;
6821;SDS011;3449;48.728;8.968;2023-03-30T13:47:21;9.20;;;2.17;;
6821;SDS011;3449;48.728;8.968;2023-03-30T13:49:58;4.80;;;2.20;;
6821;SDS011;3449;48.728;8.968;2023-03-30T13:52:29;1.87;;;1.37;;
6821;SDS011;3449;48.728;8.968;2023-03-30T13:55:02;2.53;;;1.30;;
6821;SDS011;3449;48.728;8.968;2023-03-30T13:57:35;5.50;;;1.67;;
6821;SDS011;3449;48.728;8.968;2023-03-30T14:00:05;4.83;;;2.17;;
6821;SDS011;3449;48.728;8.968;2023-03-30T14:02:37;6.40;;;1.77;;
6821;SDS011;3449;48.728;8.968;2023-03-30T14:05:12;3.63;;;2.20;;
6821;SDS011;3449;48.728;8.968;2023-03-30T14:07:44;4.10;;;1.60;;
6821;SDS011;3449;48.728;8.968;2023-03-30T14:10:13;9.90;;;2.03;;
6821;SDS011;3449;48.728;8.968;2023-03-30T14:12:42;6.30;;;1.47;;
6821;SDS011;3449;48.728;8.968;2023-03-30T14:15:14;3.73;;;1.10;;
6821;SDS011;3449;48.728;8.968;2023-03-30T14:17:44;2.50;;;1.77;;
6821;SDS011;3449;48.728;8.968;2023-03-30T14:20:15;2.90;;;1.20;;
6821;SDS011;3449;48.728;8.968;2023-03-30T14:22:50;4.03;;;1.37;;
6821;SDS011;3449;48.728;8.968;2023-03-30T14:25:24;5.00;;;1.30;;
6821;SDS011;3449;48.728;8.968;2023-03-30T14:27:54;3.30;;;1.10;;
6821;SDS011;3449;48.728;8.968;2023-03-30T14:30:23;6.00;;;1.40;;
6821;SDS011;3449;48.728;8.968;2023-03-30T14:35:42;2.77;;;1.63;;
6821;SDS011;3449;48.728;8.968;2023-03-30T14:38:13;2.27;;;1.20;;
6821;SDS011;3449;48.728;8.968;2023-03-30T14:40:43;2.60;;;1.33;;
6821;SDS011;3449;48.728;8.968;2023-03-30T14:43:12;2.20;;;1.23;;
6821;SDS011;3449;48.728;8.968;2023-03-30T14:45:41;1.60;;;0.97;;
6821;SDS011;3449;48.728;8.968;2023-03-30T14:48:10;2.30;;;1.10;;
6821;SDS011;3449;48.728;8.968;2023-03-30T14:50:46;4.30;;;1.63;;
6821;SDS011;3449;48.728;8.968;2023-03-30T14:53:14;3.93;;;1.53;;
6821;SDS011;3449;48.728;8.968;2023-03-30T14:55:45;4.13;;;1.27;;
6821;SDS011;3449;48.728;8.968;2023-03-30T14:58:12;3.37;;;1.70;;
6821;SDS011;3449;48.728;8.968;2023-03-30T15:00:40;4.83;;;1.60;;
6821;SDS011;3449;48.728;8.968;2023-03-30T15:03:08;4.70;;;1.50;;
6821;SDS011;3449;48.728;8.968;2023-03-30T15:05:36;1.63;;;1.53;;
6821;SDS011;3449;48.728;8.968;2023-03-30T15:08:10;1.23;;;1.13;;
6821;SDS011;3449;48.728;8.968;2023-03-30T15:10:44;5.33;;;1.97;;
6821;SDS011;3449;48.728;8.968;2023-03-30T15:13:20;2.40;;;1.40;;
6821;SDS011;3449;48.728;8.968;2023-03-30T15:15:51;11.20;;;1.57;;
6821;SDS011;3449;48.728;8.968;2023-03-30T15:18:19;4.73;;;1.60;;
6821;SDS011;3449;48.728;8.968;2023-03-30T15:20:51;2.53;;;1.40;;
6821;SDS011;3449;48.728;8.968;2023-03-30T15:23:18;4.80;;;1.43;;
6821;SDS011;3449;48.728;8.968;2023-03-30T15:25:45;2.60;;;1.00;;
6821;SDS011;3449;48.728;8.968;2023-03-30T15:28:15;7.60;;;2.60;;
6821;SDS011;3449;48.728;8.968;2023-03-30T15:30:44;2.20;;;1.03;;
6821;SDS011;3449;48.728;8.968;2023-03-30T15:33:20;2.20;;;1.13;;
6821;SDS011;3449;48.728;8.968;2023-03-30T15:35:48;2.10;;;1.00;;
6821;SDS011;3449;48.728;8.968;2023-03-30T15:38:17;4.33;;;1.53;;
6821;SDS011;3449;48.728;8.968;2023-03-30T15:40:53;1.10;;;0.73;;
6821;SDS011;3449;48.728;8.968;2023-03-30T15:43:22;2.70;;;1.10;;
6821;SDS011;3449;48.728;8.968;2023-03-30T15:45:51;1.47;;;1.10;;
6821;SDS011;3449;48.728;8.968;2023-03-30T15:48:23;1.13;;;0.57;;
6821;SDS011;3449;48.728;8.968;2023-03-30T15:50:53;2.50;;;0.80;;
6821;SDS011;3449;48.728;8.968;2023-03-30T15:53:39;2.87;;;1.00;;
6821;SDS011;3449;48.728;8.968;2023-03-30T15:56:11;2.27;;;1.00;;
6821;SDS011;3449;48.728;8.968;2023-03-30T15:58:45;0.93;;;0.60;;
6821;SDS011;3449;48.728;8.968;2023-03-30T16:01:13;3.73;;;0.90;;
6821;SDS011;3449;48.728;8.968;2023-03-30T16:03:47;2.50;;;0.80;;